Time;durP1;ratioP1;P1;durP2;ratioP2;P2;SDS_P1;SDS_P2;PMS_P1;PMS_P2;Temp;Humidity;BMP_temperature;BMP_pressure;BME280_temperature;BME280_humidity;BME280_pressure;Samples;Min_cycle;Max_cycle;Signal;HPM_P1;HPM_P2
2022/12/24 00:01:09;;;;;;;0.00;0.00;;;10.90;99.90;;;;;;5052089;28;20177;-63
2022/12/24 00:03:36;;;;;;;0.10;0.10;;;10.90;99.90;;;;;;5052110;28;20212;-63
2022/12/24 00:06:14;;;;;;;0.00;0.00;;;10.80;99.90;;;;;;5051825;28;20234;-63
2022/12/24 00:08:40;;;;;;;0.03;0.03;;;10.80;99.90;;;;;;5051694;28;20647;-63
2022/12/24 00:11:06;;;;;;;0.00;0.00;;;10.80;99.90;;;;;;5051511;28;20220;-64
2022/12/24 00:13:32;;;;;;;0.00;0.00;;;10.80;99.90;;;;;;5051763;28;20271;-63
2022/12/24 00:15:58;;;;;;;0.00;0.00;;;10.70;99.90;;;;;;5051648;28;20636;-63
2022/12/24 00:18:23;;;;;;;0.00;0.00;;;10.70;99.90;;;;;;5051130;28;20178;-63
2022/12/24 00:20:49;;;;;;;0.00;0.00;;;10.70;99.90;;;;;;5051284;28;20200;-64
2022/12/24 00:23:16;;;;;;;0.00;0.00;;;10.60;99.90;;;;;;5051943;28;20205;-63
2022/12/24 00:25:42;;;;;;;0.00;0.00;;;10.60;99.90;;;;;;5051485;28;20196;-63
2022/12/24 00:28:07;;;;;;;0.00;0.00;;;10.60;99.90;;;;;;5050479;28;20178;-63
2022/12/24 00:30:33;;;;;;;0.00;0.00;;;10.60;99.90;;;;;;5051808;28;20178;-63
2022/12/24 00:32:58;;;;;;;0.00;0.00;;;10.50;99.90;;;;;;5051738;28;20213;-64
2022/12/24 00:35:24;;;;;;;0.00;0.00;;;10.60;99.90;;;;;;5051745;28;20559;-63
2022/12/24 00:37:49;;;;;;;0.00;0.00;;;10.60;99.90;;;;;;5051780;28;20188;-63
2022/12/24 00:40:16;;;;;;;0.00;0.00;;;10.60;99.90;;;;;;5051817;28;20628;-63
2022/12/24 00:42:42;;;;;;;0.00;0.00;;;10.60;99.90;;;;;;5051666;28;20285;-63
2022/12/24 00:45:09;;;;;;;0.00;0.00;;;10.60;99.90;;;;;;5051671;28;20957;-63
2022/12/24 00:47:35;;;;;;;0.00;0.00;;;10.60;99.90;;;;;;5051683;28;20271;-63
2022/12/24 00:50:01;;;;;;;0.00;0.00;;;10.60;99.90;;;;;;5051606;28;20204;-63
2022/12/24 00:52:26;;;;;;;0.00;0.00;;;10.60;99.90;;;;;;5051514;28;20669;-63
2022/12/24 00:54:52;;;;;;;0.00;0.00;;;10.60;99.90;;;;;;5051433;28;20785;-63
2022/12/24 00:57:18;;;;;;;0.00;0.00;;;10.70;99.90;;;;;;5051351;28;20185;-63
2022/12/24 00:59:43;;;;;;;0.00;0.00;;;10.70;99.90;;;;;;5051768;28;20188;-63
2022/12/24 01:02:09;;;;;;;0.00;0.00;;;10.70;99.90;;;;;;5051379;28;20185;-64
2022/12/24 01:07:19;;;;;;;0.00;0.00;;;10.70;99.90;;;;;;5051461;28;20611;-63
2022/12/24 01:09:44;;;;;;;0.00;0.00;;;10.80;99.90;;;;;;5050251;28;20194;-63
2022/12/24 01:12:10;;;;;;;0.00;0.00;;;10.70;99.90;;;;;;5051203;28;20696;-64
2022/12/24 01:14:36;;;;;;;0.00;0.00;;;10.80;99.90;;;;;;5051373;28;20205;-64
2022/12/24 01:17:02;;;;;;;0.00;0.00;;;10.80;99.90;;;;;;5051390;28;20216;-64
2022/12/24 01:19:27;;;;;;;0.00;0.00;;;10.80;99.90;;;;;;5051397;28;20224;-63
2022/12/24 01:21:53;;;;;;;0.00;0.00;;;10.80;99.90;;;;;;5054826;28;20252;-64
2022/12/24 01:24:19;;;;;;;0.00;0.00;;;10.70;99.90;;;;;;5054805;28;20181;-63
2022/12/24 01:26:44;;;;;;;0.00;0.00;;;10.70;99.90;;;;;;5054246;28;20630;-63
2022/12/24 01:29:10;;;;;;;0.00;0.00;;;10.70;99.90;;;;;;5054266;28;20300;-64
2022/12/24 01:31:35;;;;;;;0.00;0.00;;;10.60;99.90;;;;;;5053685;28;20238;-63
2022/12/24 01:34:01;;;;;;;0.00;0.00;;;10.60;99.90;;;;;;5054027;28;20200;-63
2022/12/24 01:36:26;;;;;;;0.00;0.00;;;10.60;99.90;;;;;;5053942;28;20636;-63
2022/12/24 01:38:52;;;;;;;0.00;0.00;;;10.60;99.90;;;;;;5053724;28;20173;-64
2022/12/24 01:44:27;;;;;;;0.00;0.00;;;10.50;99.90;;;;;;5054687;28;20184;-63
2022/12/24 01:47:23;;;;;;;0.00;0.00;;;10.40;99.90;;;;;;5054114;28;20182;-64
2022/12/24 01:49:55;;;;;;;0.00;0.00;;;10.40;99.90;;;;;;5045349;28;20297;-64
2022/12/24 01:52:25;;;;;;;0.00;0.00;;;10.40;99.90;;;;;;5054252;28;20229;-63
2022/12/24 01:54:59;;;;;;;0.00;0.00;;;10.30;99.90;;;;;;5051586;28;20544;-63
2022/12/24 01:57:30;;;;;;;0.00;0.00;;;10.30;99.90;;;;;;5038433;28;20165;-63
2022/12/24 01:59:59;;;;;;;0.00;0.00;;;10.30;99.90;;;;;;5054041;28;20231;-63
2022/12/24 02:02:26;;;;;;;0.00;0.00;;;10.20;99.90;;;;;;5052350;28;20184;-63
2022/12/24 02:04:54;;;;;;;0.00;0.00;;;10.20;99.90;;;;;;5053471;28;20593;-64
2022/12/24 02:07:20;;;;;;;0.00;0.00;;;10.20;99.90;;;;;;5053414;28;20209;-63
2022/12/24 02:09:48;;;;;;;0.00;0.00;;;10.20;99.90;;;;;;5053955;28;20231;-63
2022/12/24 02:12:14;;;;;;;0.00;0.00;;;10.20;99.90;;;;;;5053360;28;20633;-63
2022/12/24 02:14:39;;;;;;;0.00;0.00;;;10.20;99.90;;;;;;5053755;28;20182;-63
2022/12/24 02:17:23;;;;;;;0.00;0.00;;;10.20;99.90;;;;;;5051957;28;20193;-63
2022/12/24 02:20:13;;;;;;;0.00;0.00;;;10.20;99.90;;;;;;5040892;28;20209;-64
2022/12/24 02:23:00;;;;;;;0.00;0.00;;;10.20;99.90;;;;;;5052208;28;20235;-63
2022/12/24 02:25:56;;;;;;;0.00;0.00;;;10.10;99.90;;;;;;5052107;28;20648;-64
2022/12/24 02:28:40;;;;;;;0.00;0.00;;;10.10;99.90;;;;;;5045267;28;21063;-63
2022/12/24 02:31:22;;;;;;;0.00;0.00;;;10.10;99.90;;;;;;5053672;28;20264;-63
2022/12/24 02:34:05;;;;;;;0.00;0.00;;;10.10;99.90;;;;;;5053982;28;20220;-64
2022/12/24 02:36:41;;;;;;;0.00;0.00;;;10.10;99.90;;;;;;5053775;28;20523;-63
2022/12/24 02:39:12;;;;;;;0.00;0.00;;;10.10;99.90;;;;;;5053677;28;20177;-63
2022/12/24 02:42:05;;;;;;;0.00;0.00;;;10.10;99.90;;;;;;5053557;28;20170;-63
2022/12/24 02:44:40;;;;;;;0.00;0.00;;;10.10;99.90;;;;;;5053634;28;20189;-63
2022/12/24 02:47:07;;;;;;;0.13;0.13;;;10.10;99.90;;;;;;5053485;28;20257;-63
2022/12/24 02:49:34;;;;;;;0.00;0.00;;;10.10;99.90;;;;;;5053465;28;20664;-63
2022/12/24 02:52:00;;;;;;;0.00;0.00;;;10.10;99.90;;;;;;5053179;28;20291;-63
2022/12/24 02:54:26;;;;;;;0.00;0.00;;;10.10;99.90;;;;;;5053189;28;20704;-63
2022/12/24 02:57:16;;;;;;;0.00;0.00;;;10.10;99.90;;;;;;5052912;28;20188;-64
2022/12/24 02:59:57;;;;;;;0.00;0.00;;;10.00;99.90;;;;;;5052774;28;20189;-63
2022/12/24 03:02:35;;;;;;;0.00;0.00;;;10.00;99.90;;;;;;5033411;28;20224;-63
2022/12/24 03:05:33;;;;;;;0.00;0.00;;;10.00;99.90;;;;;;5049751;28;20208;-64
2022/12/24 03:08:28;;;;;;;0.00;0.00;;;9.90;99.90;;;;;;5052791;28;20176;-63
2022/12/24 03:11:02;;;;;;;0.00;0.00;;;9.90;99.90;;;;;;5052944;28;20189;-63
2022/12/24 03:13:28;;;;;;;0.10;0.10;;;9.80;99.90;;;;;;5052600;28;20234;-63
2022/12/24 03:15:54;;;;;;;0.00;0.00;;;9.80;99.90;;;;;;5052693;28;20188;-64
2022/12/24 03:18:25;;;;;;;0.15;0.15;;;9.70;99.90;;;;;;5052620;28;20183;-63
2022/12/24 03:21:04;;;;;;;0.00;0.00;;;9.70;99.90;;;;;;5052194;28;20626;-64
2022/12/24 03:23:29;;;;;;;0.00;0.00;;;9.60;99.90;;;;;;5051313;28;20181;-63
2022/12/24 03:25:56;;;;;;;0.00;0.00;;;9.60;99.90;;;;;;5052323;28;20188;-63
2022/12/24 03:28:25;;;;;;;0.00;0.00;;;9.60;99.90;;;;;;5051754;28;20664;-63
2022/12/24 03:30:51;;;;;;;0.00;0.00;;;9.60;99.90;;;;;;5051811;28;20192;-64
2022/12/24 03:33:17;;;;;;;0.00;0.00;;;9.60;99.90;;;;;;5051704;28;20562;-64
2022/12/24 03:35:43;;;;;;;0.00;0.00;;;9.60;99.90;;;;;;5051960;28;20203;-63
2022/12/24 03:38:08;;;;;;;0.00;0.00;;;9.60;99.90;;;;;;5052108;28;20181;-63
2022/12/24 03:40:34;;;;;;;0.00;0.00;;;9.70;99.90;;;;;;5051628;28;20178;-63
2022/12/24 03:43:00;;;;;;;0.00;0.00;;;9.70;99.90;;;;;;5051237;28;20204;-63
2022/12/24 03:45:25;;;;;;;0.00;0.00;;;9.70;99.90;;;;;;5051856;28;20181;-63
2022/12/24 03:47:51;;;;;;;0.00;0.00;;;9.70;99.90;;;;;;5051919;28;20538;-64
2022/12/24 03:50:16;;;;;;;0.00;0.00;;;9.80;99.90;;;;;;5051998;28;20174;-63
2022/12/24 03:52:42;;;;;;;0.00;0.00;;;9.80;99.90;;;;;;5051769;28;20213;-63
2022/12/24 03:55:08;;;;;;;0.00;0.00;;;9.90;99.90;;;;;;5052027;28;20269;-63
2022/12/24 03:57:34;;;;;;;0.00;0.00;;;9.90;99.90;;;;;;5052065;28;20638;-63
2022/12/24 03:59:59;;;;;;;0.00;0.00;;;9.90;99.90;;;;;;5051698;28;20196;-63
2022/12/24 04:02:25;;;;;;;0.00;0.00;;;10.00;99.90;;;;;;5051938;28;20230;-63
2022/12/24 04:04:50;;;;;;;0.00;0.00;;;10.00;99.90;;;;;;5051720;28;20185;-63
2022/12/24 04:07:16;;;;;;;0.00;0.00;;;10.00;99.90;;;;;;5051679;28;20964;-63
2022/12/24 04:09:41;;;;;;;0.20;0.20;;;10.10;99.90;;;;;;5051682;28;20188;-63
2022/12/24 04:12:07;;;;;;;0.00;0.00;;;10.10;99.90;;;;;;5051389;28;20225;-62
2022/12/24 04:14:34;;;;;;;0.00;0.00;;;10.10;99.90;;;;;;5051579;28;20204;-63
2022/12/24 04:17:00;;;;;;;0.00;0.00;;;10.10;99.90;;;;;;5050073;28;20181;-62
2022/12/24 04:19:25;;;;;;;0.00;0.00;;;10.10;99.90;;;;;;5051833;28;20260;-62
2022/12/24 04:21:51;;;;;;;0.00;0.00;;;10.10;99.90;;;;;;5051251;28;20186;-63
2022/12/24 04:24:16;;;;;;;0.00;0.00;;;10.10;99.90;;;;;;5051597;28;20603;-62
2022/12/24 04:26:42;;;;;;;0.00;0.00;;;10.10;99.90;;;;;;5051381;28;20174;-62
2022/12/24 04:29:07;;;;;;;0.10;0.10;;;10.10;99.90;;;;;;5050305;28;20181;-62
2022/12/24 04:31:33;;;;;;;0.00;0.00;;;10.10;99.90;;;;;;5051236;28;20192;-62
2022/12/24 04:33:58;;;;;;;0.10;0.10;;;10.10;99.90;;;;;;5051380;28;20583;-63
2022/12/24 04:36:24;;;;;;;0.00;0.00;;;10.10;99.90;;;;;;5050940;28;20256;-62
2022/12/24 04:38:49;;;;;;;0.00;0.00;;;10.10;99.90;;;;;;5051689;28;20256;-63
2022/12/24 04:41:18;;;;;;;0.00;0.00;;;10.10;99.90;;;;;;5051508;28;20181;-62
2022/12/24 04:43:43;;;;;;;0.00;0.00;;;10.10;99.90;;;;;;5051507;28;20183;-62
2022/12/24 04:46:17;;;;;;;0.00;0.00;;;10.10;99.90;;;;;;5050061;28;20181;-62
2022/12/24 04:48:44;;;;;;;0.00;0.00;;;10.10;99.90;;;;;;5051705;28;20173;-62
2022/12/24 04:51:10;;;;;;;0.00;0.00;;;10.00;99.90;;;;;;5051433;28;20189;-62
2022/12/24 04:53:37;;;;;;;0.00;0.00;;;10.00;99.90;;;;;;5045694;28;20235;-62
2022/12/24 04:56:03;;;;;;;0.00;0.00;;;10.00;99.90;;;;;;5055535;28;20181;-63
2022/12/24 04:58:28;;;;;;;0.00;0.00;;;10.00;99.90;;;;;;5055089;28;20200;-62
2022/12/24 05:00:54;;;;;;;0.10;0.10;;;10.10;99.90;;;;;;5055306;28;20177;-63
2022/12/24 05:03:20;;;;;;;0.00;0.00;;;10.10;99.90;;;;;;5055097;28;20656;-63
2022/12/24 05:05:46;;;;;;;0.00;0.00;;;10.10;99.90;;;;;;5055172;28;20211;-63
2022/12/24 05:08:12;;;;;;;0.00;0.00;;;10.00;99.90;;;;;;5055213;28;20664;-63
2022/12/24 05:10:38;;;;;;;0.00;0.00;;;10.00;99.90;;;;;;5054912;28;20208;-63
2022/12/24 05:13:03;;;;;;;0.00;0.00;;;10.00;99.90;;;;;;5054835;28;20265;-63
2022/12/24 05:15:29;;;;;;;0.00;0.00;;;10.00;99.90;;;;;;5053769;28;20299;-63
2022/12/24 05:17:54;;;;;;;0.00;0.00;;;9.90;99.90;;;;;;5055084;28;20169;-63
2022/12/24 05:20:20;;;;;;;0.00;0.00;;;9.90;99.90;;;;;;5054626;28;20174;-63
2022/12/24 05:28:22;;;;;;;0.08;0.08;;;9.90;99.90;;;;;;5035341;28;20201;-63
2022/12/24 05:30:48;;;;;;;0.00;0.00;;;9.90;99.90;;;;;;5045909;28;20188;-64
2022/12/24 05:33:13;;;;;;;0.00;0.00;;;10.00;99.90;;;;;;5054689;28;20213;-63
2022/12/24 05:35:39;;;;;;;0.00;0.00;;;10.00;99.90;;;;;;5054888;28;20177;-63
2022/12/24 05:38:05;;;;;;;0.00;0.00;;;10.00;99.90;;;;;;5054157;28;20185;-63
2022/12/24 05:40:30;;;;;;;0.00;0.00;;;10.00;99.90;;;;;;5054392;28;20205;-63
2022/12/24 05:42:56;;;;;;;0.00;0.00;;;10.00;99.90;;;;;;5044185;28;20235;-63
2022/12/24 05:45:21;;;;;;;0.00;0.00;;;10.00;99.90;;;;;;5053990;28;20181;-64
2022/12/24 05:47:47;;;;;;;0.00;0.00;;;10.00;99.90;;;;;;5054086;28;20185;-63
2022/12/24 05:50:12;;;;;;;0.00;0.00;;;10.10;99.90;;;;;;5054302;28;20177;-63
2022/12/24 05:52:38;;;;;;;0.00;0.00;;;10.10;99.90;;;;;;5054227;28;20232;-63
2022/12/24 05:55:04;;;;;;;0.00;0.00;;;10.10;99.90;;;;;;5053962;28;20193;-63
2022/12/24 05:57:29;;;;;;;0.00;0.00;;;10.10;99.90;;;;;;5054477;28;20219;-63
2022/12/24 05:59:55;;;;;;;0.00;0.00;;;10.00;99.90;;;;;;5053975;28;20184;-64
2022/12/24 06:02:20;;;;;;;0.00;0.00;;;10.00;99.90;;;;;;5053986;28;20188;-63
2022/12/24 06:04:46;;;;;;;0.00;0.00;;;10.00;99.90;;;;;;5054298;28;20181;-62
2022/12/24 06:07:11;;;;;;;0.00;0.00;;;10.00;99.90;;;;;;5051965;28;20173;-63
2022/12/24 06:09:37;;;;;;;0.00;0.00;;;10.10;99.90;;;;;;5054013;28;20671;-62
2022/12/24 06:12:02;;;;;;;0.00;0.00;;;10.10;99.90;;;;;;5053866;28;20726;-62
2022/12/24 06:14:28;;;;;;;0.00;0.00;;;10.10;99.90;;;;;;5054201;28;20181;-63
2022/12/24 06:16:54;;;;;;;0.00;0.00;;;10.10;99.90;;;;;;5053180;28;20178;-62
2022/12/24 06:19:19;;;;;;;0.22;0.22;;;10.10;99.90;;;;;;5052741;28;20209;-63
2022/12/24 06:21:45;;;;;;;0.00;0.00;;;10.10;99.90;;;;;;5053840;28;20632;-62
2022/12/24 06:24:10;;;;;;;0.00;0.00;;;10.10;99.90;;;;;;5053330;28;20540;-64
2022/12/24 06:26:36;;;;;;;0.00;0.00;;;10.10;99.90;;;;;;5052390;28;20216;-61
2022/12/24 06:29:02;;;;;;;0.00;0.00;;;10.10;99.90;;;;;;5052526;28;20169;-61
2022/12/24 06:31:27;;;;;;;0.00;0.00;;;10.10;99.90;;;;;;5053601;28;20177;-60
2022/12/24 06:33:53;;;;;;;0.00;0.00;;;10.10;99.90;;;;;;5053491;28;20213;-61
2022/12/24 06:36:22;;;;;;;0.00;0.00;;;10.10;99.90;;;;;;5052626;28;20169;-63
2022/12/24 06:38:48;;;;;;;0.00;0.00;;;10.10;99.90;;;;;;5053424;28;20192;-65
2022/12/24 06:41:14;;;;;;;0.00;0.00;;;10.10;99.90;;;;;;5053229;28;20216;-64
2022/12/24 06:43:45;;;;;;;0.00;0.00;;;10.10;99.90;;;;;;5053608;28;20574;-63
2022/12/24 06:46:10;;;;;;;0.08;0.08;;;10.00;99.90;;;;;;5053543;28;20189;-64
2022/12/24 06:48:36;;;;;;;0.00;0.00;;;10.00;99.90;;;;;;5053107;28;20575;-62
2022/12/24 06:51:02;;;;;;;0.00;0.00;;;10.00;99.90;;;;;;5052508;28;20581;-62
2022/12/24 06:53:27;;;;;;;0.00;0.00;;;10.00;99.90;;;;;;5052095;28;20220;-63
2022/12/24 06:56:03;;;;;;;0.00;0.00;;;9.90;99.90;;;;;;5052556;28;20198;-64
2022/12/24 06:58:29;;;;;;;0.00;0.00;;;9.90;99.90;;;;;;5052678;28;20184;-63
2022/12/24 07:00:55;;;;;;;0.00;0.00;;;9.90;99.90;;;;;;5052558;28;20659;-63
2022/12/24 07:03:20;;;;;;;0.00;0.00;;;9.90;99.90;;;;;;5053185;28;20185;-63
2022/12/24 07:05:46;;;;;;;0.00;0.00;;;9.90;99.90;;;;;;5054266;28;20533;-62
2022/12/24 07:08:11;;;;;;;0.00;0.00;;;9.90;99.90;;;;;;5053028;28;20185;-63
2022/12/24 07:10:37;;;;;;;0.00;0.00;;;9.90;99.90;;;;;;5053088;28;20264;-62
2022/12/24 07:13:02;;;;;;;0.00;0.00;;;9.90;99.90;;;;;;5051533;28;20241;-62
2022/12/24 07:15:28;;;;;;;0.00;0.00;;;9.90;99.90;;;;;;5053033;28;20660;-63
2022/12/24 07:17:54;;;;;;;0.00;0.00;;;9.90;99.90;;;;;;5051898;28;20173;-63
2022/12/24 07:20:19;;;;;;;0.00;0.00;;;10.00;99.90;;;;;;5052497;28;20174;-63
2022/12/24 07:22:45;;;;;;;0.00;0.00;;;10.00;99.90;;;;;;5059113;28;20181;-63
2022/12/24 07:25:11;;;;;;;0.00;0.00;;;10.00;99.90;;;;;;5072676;28;20187;-63
2022/12/24 07:27:38;;;;;;;0.00;0.00;;;10.00;99.90;;;;;;5056592;28;20182;-63
2022/12/24 07:30:04;;;;;;;0.00;0.00;;;10.00;99.90;;;;;;5052603;28;20233;-62
2022/12/24 07:32:29;;;;;;;0.00;0.00;;;10.00;99.90;;;;;;5052295;28;20222;-62
2022/12/24 07:34:55;;;;;;;0.00;0.00;;;10.00;99.90;;;;;;5067770;28;20354;-63
2022/12/24 07:37:20;;;;;;;0.00;0.00;;;10.00;99.90;;;;;;5072510;28;20175;-62
2022/12/24 07:39:46;;;;;;;0.00;0.00;;;10.00;99.90;;;;;;5058910;28;20204;-62
2022/12/24 07:42:12;;;;;;;0.00;0.00;;;10.00;99.90;;;;;;5052373;28;20230;-62
2022/12/24 07:44:37;;;;;;;0.00;0.00;;;10.00;99.90;;;;;;5052746;28;20529;-62
2022/12/24 07:47:03;;;;;;;0.00;0.00;;;10.00;99.90;;;;;;5052466;28;20200;-63
2022/12/24 07:49:28;;;;;;;0.00;0.00;;;10.00;99.90;;;;;;5052316;28;20683;-63
2022/12/24 07:51:54;;;;;;;0.00;0.00;;;10.00;99.90;;;;;;5051962;28;20220;-63
2022/12/24 07:54:19;;;;;;;0.00;0.00;;;10.00;99.90;;;;;;5036493;28;20197;-62
2022/12/24 07:56:45;;;;;;;0.00;0.00;;;10.10;99.90;;;;;;5051798;28;20185;-62
2022/12/24 07:59:14;;;;;;;0.00;0.00;;;10.10;99.90;;;;;;5050127;28;20185;-62
2022/12/24 08:01:40;;;;;;;0.00;0.00;;;10.10;99.90;;;;;;5051976;28;20185;-62
2022/12/24 08:04:05;;;;;;;0.00;0.00;;;10.10;99.90;;;;;;5051840;28;20189;-62
2022/12/24 08:06:31;;;;;;;0.00;0.00;;;10.10;99.90;;;;;;5052072;28;20189;-62
2022/12/24 08:08:56;;;;;;;0.05;0.05;;;10.20;99.90;;;;;;5050914;28;20177;-62
2022/12/24 08:11:22;;;;;;;0.00;0.00;;;10.20;99.90;;;;;;5051630;28;20276;-62
2022/12/24 08:13:48;;;;;;;0.00;0.00;;;10.20;99.90;;;;;;5051469;28;20217;-61
2022/12/24 08:16:13;;;;;;;0.00;0.00;;;10.20;99.90;;;;;;5050468;28;20173;-62
2022/12/24 08:18:39;;;;;;;0.35;0.17;;;10.20;99.90;;;;;;5052077;28;20235;-61
2022/12/24 08:21:09;;;;;;;0.00;0.00;;;10.20;99.90;;;;;;5050682;28;20590;-62
2022/12/24 08:23:37;;;;;;;0.00;0.00;;;10.30;99.90;;;;;;5050075;28;20209;-63
2022/12/24 08:26:06;;;;;;;0.00;0.00;;;10.30;99.90;;;;;;5050672;28;20671;-63
2022/12/24 08:28:32;;;;;;;0.00;0.00;;;10.40;99.90;;;;;;5051854;28;20180;-63
2022/12/24 08:30:58;;;;;;;0.00;0.00;;;10.40;99.90;;;;;;5055439;28;20177;-64
2022/12/24 08:33:24;;;;;;;0.00;0.00;;;10.40;99.90;;;;;;5055786;28;20216;-63
2022/12/24 08:35:53;;;;;;;0.00;0.00;;;10.40;99.90;;;;;;5055714;28;20185;-64
2022/12/24 08:38:19;;;;;;;0.00;0.00;;;10.50;99.90;;;;;;5055754;28;20173;-64
2022/12/24 08:40:48;;;;;;;0.00;0.00;;;10.50;99.90;;;;;;5054993;28;20231;-63
2022/12/24 08:43:15;;;;;;;0.00;0.00;;;10.60;99.90;;;;;;5055346;28;20197;-63
2022/12/24 08:45:41;;;;;;;0.00;0.00;;;10.60;99.90;;;;;;5055162;28;20204;-63
2022/12/24 08:48:08;;;;;;;0.00;0.00;;;10.60;99.90;;;;;;5054848;28;20220;-63
2022/12/24 08:50:34;;;;;;;0.00;0.00;;;10.60;99.90;;;;;;5054993;28;20200;-63
2022/12/24 08:53:00;;;;;;;0.00;0.00;;;10.60;99.90;;;;;;5049634;28;20226;-63
2022/12/24 08:55:26;;;;;;;0.00;0.00;;;10.60;99.90;;;;;;5046332;28;20173;-63
2022/12/24 08:57:51;;;;;;;0.00;0.00;;;10.70;99.90;;;;;;5054606;28;20257;-64
2022/12/24 09:00:17;;;;;;;0.20;0.20;;;10.80;99.90;;;;;;5054519;28;20200;-63
2022/12/24 09:02:43;;;;;;;0.30;0.30;;;10.90;99.90;;;;;;5054573;28;20211;-62
2022/12/24 09:05:09;;;;;;;0.00;0.00;;;11.00;99.90;;;;;;5053941;28;20180;-63
2022/12/24 09:07:35;;;;;;;0.00;0.00;;;11.10;99.90;;;;;;5055047;28;20181;-63
2022/12/24 09:10:00;;;;;;;0.00;0.00;;;11.10;99.90;;;;;;5053874;28;20650;-63
2022/12/24 09:12:26;;;;;;;0.00;0.00;;;11.10;99.90;;;;;;5056947;28;20265;-63
2022/12/24 09:14:53;;;;;;;0.00;0.00;;;11.10;99.90;;;;;;5054039;28;20197;-63
2022/12/24 09:17:19;;;;;;;0.03;0.03;;;11.00;99.90;;;;;;5054554;28;20191;-63
2022/12/24 09:19:45;;;;;;;0.00;0.00;;;11.00;99.90;;;;;;5054363;28;20641;-63
2022/12/24 09:22:11;;;;;;;0.08;0.08;;;11.00;99.90;;;;;;5053622;28;20653;-63
2022/12/24 09:24:36;;;;;;;0.00;0.00;;;11.00;99.90;;;;;;5054461;28;20220;-63
2022/12/24 09:27:02;;;;;;;0.00;0.00;;;11.10;99.90;;;;;;5053772;28;20249;-64
2022/12/24 09:29:29;;;;;;;0.00;0.00;;;11.20;99.90;;;;;;5054350;28;20196;-63
2022/12/24 09:31:55;;;;;;;0.00;0.00;;;11.20;99.90;;;;;;5053997;28;20238;-64
2022/12/24 09:34:21;;;;;;;0.00;0.00;;;11.30;99.90;;;;;;5053179;28;20271;-66
2022/12/24 09:36:46;;;;;;;0.88;0.32;;;11.30;99.90;;;;;;5053923;28;20256;-65
2022/12/24 09:39:13;;;;;;;0.00;0.00;;;11.40;99.90;;;;;;5053804;28;20264;-66
2022/12/24 09:42:21;;;;;;;0.00;0.00;;;11.40;99.90;;;;;;5052378;28;20637;-61
2022/12/24 09:44:57;;;;;;;0.00;0.00;;;11.40;99.90;;;;;;5048386;28;20185;-61
2022/12/24 09:47:35;;;;;;;0.00;0.00;;;11.40;99.90;;;;;;5053962;28;20169;-61
2022/12/24 09:50:03;;;;;;;0.00;0.00;;;11.40;99.90;;;;;;5054039;28;20193;-61
2022/12/24 09:52:37;;;;;;;0.22;0.17;;;11.40;99.90;;;;;;5053497;28;20206;-61
2022/12/24 09:55:25;;;;;;;0.00;0.00;;;11.40;99.90;;;;;;5053437;28;20506;-61
2022/12/24 09:57:53;;;;;;;0.00;0.00;;;11.30;99.90;;;;;;5040440;28;20184;-61
2022/12/24 10:00:29;;;;;;;0.00;0.00;;;11.30;99.90;;;;;;5053460;28;20260;-61
2022/12/24 10:02:56;;;;;;;0.45;0.45;;;11.30;99.90;;;;;;5053979;28;20177;-61
2022/12/24 10:05:56;;;;;;;0.00;0.00;;;11.20;99.90;;;;;;5053758;28;20188;-61
2022/12/24 10:08:28;;;;;;;0.00;0.00;;;11.20;99.90;;;;;;5051867;28;20275;-61
2022/12/24 10:11:01;;;;;;;0.00;0.00;;;11.20;99.90;;;;;;5064819;28;20181;-61
2022/12/24 10:14:02;;;;;;;0.00;0.00;;;11.20;99.90;;;;;;5070235;28;20235;-61
2022/12/24 10:16:28;;;;;;;0.00;0.00;;;11.20;99.90;;;;;;5050478;28;20222;-61
2022/12/24 10:19:12;;;;;;;0.22;0.20;;;11.20;99.90;;;;;;5053332;28;20177;-61
2022/12/24 10:22:07;;;;;;;0.30;0.30;;;11.20;99.90;;;;;;5052551;28;20189;-61
2022/12/24 10:24:54;;;;;;;0.10;0.10;;;11.20;99.90;;;;;;5053532;28;20227;-61
2022/12/24 10:27:25;;;;;;;0.00;0.00;;;11.20;99.90;;;;;;5052278;28;20200;-61
2022/12/24 10:29:57;;;;;;;0.00;0.00;;;11.20;99.90;;;;;;5053273;28;20199;-61
2022/12/24 10:32:30;;;;;;;0.00;0.00;;;11.20;99.90;;;;;;5053026;28;20232;-61
2022/12/24 10:35:15;;;;;;;0.00;0.00;;;11.20;99.90;;;;;;5052676;28;20239;-62
2022/12/24 10:37:46;;;;;;;0.00;0.00;;;11.20;99.90;;;;;;5052725;28;20536;-62
2022/12/24 10:40:23;;;;;;;0.10;0.10;;;11.20;99.90;;;;;;5053502;28;20173;-61
2022/12/24 10:42:48;;;;;;;0.00;0.00;;;11.10;99.90;;;;;;5053891;28;20188;-61
2022/12/24 10:45:17;;;;;;;0.00;0.00;;;11.00;99.90;;;;;;5052837;28;20307;-61
2022/12/24 10:47:46;;;;;;;0.00;0.00;;;11.00;99.90;;;;;;5051641;28;20644;-61
2022/12/24 10:50:23;;;;;;;0.05;0.05;;;11.00;99.90;;;;;;5053319;28;20636;-62
2022/12/24 10:52:50;;;;;;;0.08;0.08;;;10.90;99.90;;;;;;5047562;28;20214;-61
2022/12/24 10:55:18;;;;;;;0.20;0.20;;;11.10;99.90;;;;;;5042171;28;20189;-61
2022/12/24 10:58:11;;;;;;;0.28;0.28;;;11.70;99.90;;;;;;5051288;28;20254;-62
2022/12/24 11:00:38;;;;;;;0.00;0.00;;;11.90;99.90;;;;;;5052549;28;20170;-62
2022/12/24 11:03:29;;;;;;;0.00;0.00;;;11.80;99.90;;;;;;5058758;28;20178;-63
2022/12/24 11:06:21;;;;;;;0.00;0.00;;;11.70;99.90;;;;;;5041730;28;20228;-62
2022/12/24 11:08:47;;;;;;;0.00;0.00;;;11.50;99.90;;;;;;5053013;28;20181;-61
2022/12/24 11:11:19;;;;;;;0.00;0.00;;;11.30;99.90;;;;;;5052279;28;20287;-62
2022/12/24 11:13:58;;;;;;;0.00;0.00;;;11.20;99.90;;;;;;5052060;28;20258;-61
2022/12/24 11:16:32;;;;;;;0.00;0.00;;;11.10;99.90;;;;;;5041664;28;20235;-62
2022/12/24 11:19:01;;;;;;;0.00;0.00;;;11.00;99.90;;;;;;5052535;28;20176;-62
2022/12/24 11:21:33;;;;;;;0.00;0.00;;;11.00;99.90;;;;;;5052831;28;20231;-62
2022/12/24 11:24:08;;;;;;;0.00;0.00;;;11.00;99.90;;;;;;5052554;28;20181;-62
2022/12/24 11:26:34;;;;;;;0.30;0.30;;;11.10;99.90;;;;;;5052852;28;20235;-62
2022/12/24 11:29:15;;;;;;;0.10;0.10;;;11.10;99.90;;;;;;5052454;28;20177;-62
2022/12/24 11:31:42;;;;;;;0.00;0.00;;;11.10;99.90;;;;;;5052567;28;20185;-61
2022/12/24 11:34:27;;;;;;;0.00;0.00;;;11.20;99.90;;;;;;5051874;28;20307;-62
2022/12/24 11:37:13;;;;;;;0.00;0.00;;;11.10;99.90;;;;;;5051855;28;20185;-62
2022/12/24 11:39:53;;;;;;;0.00;0.00;;;11.10;99.90;;;;;;5061394;28;20535;-62
2022/12/24 11:42:24;;;;;;;0.00;0.00;;;11.10;99.90;;;;;;5048155;28;20181;-61
2022/12/24 11:44:50;;;;;;;0.73;0.57;;;11.10;99.90;;;;;;5037054;28;20212;-62
2022/12/24 11:47:16;;;;;;;0.10;0.10;;;11.20;99.90;;;;;;5051529;28;20209;-61
2022/12/24 11:49:41;;;;;;;0.00;0.00;;;11.20;99.90;;;;;;5051427;28;20204;-61
2022/12/24 11:52:10;;;;;;;0.00;0.00;;;11.20;99.90;;;;;;5051537;28;20178;-61
2022/12/24 11:54:55;;;;;;;0.00;0.00;;;11.20;99.90;;;;;;5048564;28;20178;-61
2022/12/24 11:57:25;;;;;;;0.00;0.00;;;11.30;99.90;;;;;;5050156;28;20656;-61
2022/12/24 11:59:51;;;;;;;0.00;0.00;;;11.40;99.90;;;;;;5050859;28;20189;-62
2022/12/24 12:02:28;;;;;;;0.00;0.00;;;11.50;99.90;;;;;;5051123;28;20671;-62
2022/12/24 12:04:58;;;;;;;0.00;0.00;;;11.60;99.90;;;;;;5051491;28;20182;-62
2022/12/24 12:07:51;;;;;;;0.00;0.00;;;11.60;99.90;;;;;;5052238;28;20174;-62
2022/12/24 12:10:19;;;;;;;0.05;0.05;;;11.60;99.90;;;;;;5051753;28;20188;-61
2022/12/24 12:12:53;;;;;;;0.00;0.00;;;11.70;99.90;;;;;;5051874;28;20261;-62
2022/12/24 12:15:33;;;;;;;0.08;0.08;;;11.80;99.90;;;;;;5052111;28;20205;-61
2022/12/24 12:18:23;;;;;;;0.00;0.00;;;11.90;99.90;;;;;;5052074;28;20169;-62
2022/12/24 12:20:57;;;;;;;0.00;0.00;;;11.90;99.90;;;;;;5052037;28;20643;-62
2022/12/24 12:23:32;;;;;;;0.22;0.20;;;11.90;99.90;;;;;;5052033;28;20172;-62
2022/12/24 12:25:59;;;;;;;0.00;0.00;;;11.90;99.90;;;;;;5051906;28;20639;-61
2022/12/24 12:28:37;;;;;;;0.00;0.00;;;11.80;99.90;;;;;;5052053;28;20180;-62
2022/12/24 12:31:22;;;;;;;0.00;0.00;;;11.80;99.90;;;;;;5052049;28;20185;-62
2022/12/24 12:33:56;;;;;;;0.00;0.00;;;11.80;99.90;;;;;;5051876;28;20271;-63
2022/12/24 12:36:27;;;;;;;0.00;0.00;;;11.70;99.90;;;;;;5051971;28;20180;-61
2022/12/24 12:38:52;;;;;;;0.00;0.00;;;11.60;99.90;;;;;;5051259;28;20196;-62
2022/12/24 12:41:23;;;;;;;0.00;0.00;;;11.60;99.90;;;;;;5051382;28;20173;-62
2022/12/24 12:44:32;;;;;;;0.00;0.00;;;11.50;99.90;;;;;;5051172;28;20173;-62
2022/12/24 12:47:28;;;;;;;0.00;0.00;;;11.50;99.90;;;;;;5051224;28;20238;-62
2022/12/24 12:50:12;;;;;;;0.00;0.00;;;11.60;99.90;;;;;;5031856;28;20608;-62
2022/12/24 12:52:47;;;;;;;0.00;0.00;;;11.60;99.90;;;;;;5044829;28;20201;-62
2022/12/24 12:55:31;;;;;;;0.00;0.00;;;11.60;99.90;;;;;;5050697;28;20189;-62
2022/12/24 12:58:02;;;;;;;0.05;0.05;;;11.60;99.90;;;;;;5050896;28;20177;-62
2022/12/24 13:00:33;;;;;;;0.00;0.00;;;11.60;99.90;;;;;;5049740;28;20540;-61
2022/12/24 13:03:24;;;;;;;0.00;0.00;;;11.60;99.90;;;;;;5050985;28;20202;-61
2022/12/24 13:06:05;;;;;;;0.13;0.13;;;11.60;99.90;;;;;;5048476;28;20660;-62
2022/12/24 13:09:04;;;;;;;0.00;0.00;;;11.60;99.90;;;;;;5051320;28;20181;-61
2022/12/24 13:11:52;;;;;;;0.00;0.00;;;11.60;99.90;;;;;;5049753;28;20221;-61
2022/12/24 13:14:32;;;;;;;0.00;0.00;;;11.70;99.90;;;;;;5050725;28;20205;-63